Time;durP1;ratioP1;P1;durP2;ratioP2;P2;SDS_P1;SDS_P2;PMS_P1;PMS_P2;Temp;Humidity;BMP_temperature;BMP_pressure;BME280_temperature;BME280_humidity;BME280_pressure;Samples;Min_cycle;Max_cycle;Signal;HPM_P1;HPM_P2
2022/04/19 00:01:10;;;;;;;;;;;;;;;8.88;63.48;101072.19;4981630;28;1979;-95
2022/04/19 00:03:36;;;;;;;;;;;;;;;8.86;63.37;101067.03;4981274;28;1352;-95
2022/04/19 00:06:03;;;;;;;;;;;;;;;8.84;63.38;101068.25;4981439;28;1289;-95
2022/04/19 00:08:29;;;;;;;;;;;;;;;8.83;63.37;101059.34;4981481;28;1229;-95
2022/04/19 00:10:56;;;;;;;;;;;;;;;8.82;63.68;101064.91;4979850;28;2321;-95
2022/04/19 00:13:23;;;;;;;;;;;;;;;8.81;63.42;101068.63;4962056;28;1236;-95
2022/04/19 00:15:49;;;;;;;;;;;;;;;8.80;63.60;101064.28;4971006;28;1285;-95
2022/04/19 00:18:16;;;;;;;;;;;;;;;8.79;63.58;101060.75;4977833;28;1189;-96
2022/04/19 00:20:43;;;;;;;;;;;;;;;8.77;63.47;101059.31;4974140;28;1914;-95
2022/04/19 00:23:12;;;;;;;;;;;;;;;8.76;63.41;101058.47;4997190;28;1295;-95
2022/04/19 00:25:39;;;;;;;;;;;;;;;8.74;63.37;101063.22;4980855;28;1345;-96
2022/04/19 00:28:06;;;;;;;;;;;;;;;8.72;63.39;101059.88;4997499;28;1251;-95
2022/04/19 00:30:32;;;;;;;;;;;;;;;8.71;63.48;101060.09;4981280;28;1305;-95
2022/04/19 00:32:58;;;;;;;;;;;;;;;8.70;63.31;101061.09;5006822;28;1205;-94
2022/04/19 00:35:26;;;;;;;;;;;;;;;8.68;63.32;101072.06;4980659;28;1458;-95
2022/04/19 00:37:53;;;;;;;;;;;;;;;8.67;63.12;101062.31;4980732;28;1173;-95
2022/04/19 00:40:20;;;;;;;;;;;;;;;8.66;63.23;101067.91;4971184;28;1296;-95
2022/04/19 00:42:47;;;;;;;;;;;;;;;8.63;63.46;101072.63;4981223;28;1992;-95
2022/04/19 00:45:13;;;;;;;;;;;;;;;8.63;62.89;101072.63;5005007;28;1301;-95
2022/04/19 00:47:40;;;;;;;;;;;;;;;8.62;63.19;101070.16;4957191;29;3312;-95
2022/04/19 00:50:06;;;;;;;;;;;;;;;8.61;63.11;101071.16;4964005;28;4313;-95
2022/04/19 00:52:33;;;;;;;;;;;;;;;8.59;63.10;101070.53;4958170;29;1179;-95
2022/04/19 00:54:59;;;;;;;;;;;;;;;8.57;62.97;101076.09;4948042;29;1288;-95
2022/04/19 00:57:26;;;;;;;;;;;;;;;8.56;63.09;101077.13;4943127;29;1306;-95
2022/04/19 00:59:53;;;;;;;;;;;;;;;8.55;62.83;101085.34;4957674;29;1337;-95
2022/04/19 01:02:19;;;;;;;;;;;;;;;8.55;62.99;101082.66;4990053;28;1914;-95
2022/04/19 01:04:46;;;;;;;;;;;;;;;8.53;63.08;101079.34;4990364;28;1201;-95
2022/04/19 01:07:12;;;;;;;;;;;;;;;8.51;62.93;101070.66;4948175;28;1350;-95
2022/04/19 01:09:39;;;;;;;;;;;;;;;8.50;63.20;101080.59;4954506;29;1281;-96
2022/04/19 01:14:50;;;;;;;;;;;;;;;8.46;62.96;101073.09;4946316;29;1317;-96
2022/04/19 01:17:16;;;;;;;;;;;;;;;8.45;62.79;101082.19;4938505;29;1202;-94
2022/04/19 01:19:43;;;;;;;;;;;;;;;8.44;62.94;101084.00;4946284;29;2594;-95
2022/04/19 01:22:12;;;;;;;;;;;;;;;8.42;62.83;101088.75;4957427;29;1911;-95
2022/04/19 01:24:39;;;;;;;;;;;;;;;8.41;62.82;101076.34;4968706;28;1308;-95
2022/04/19 01:27:05;;;;;;;;;;;;;;;8.40;62.73;101074.69;4976769;28;1465;-95
2022/04/19 01:29:33;;;;;;;;;;;;;;;8.38;62.80;101079.38;4963936;28;1311;-95
2022/04/19 01:32:00;;;;;;;;;;;;;;;8.36;62.56;101081.44;4957149;29;1195;-95
2022/04/19 01:34:27;;;;;;;;;;;;;;;8.35;62.81;101080.63;4957310;29;1291;-95
2022/04/19 01:36:53;;;;;;;;;;;;;;;8.35;62.44;101077.09;4957278;29;1319;-95
2022/04/19 01:40:16;;;;;;;;;;;;;;;8.32;62.70;101070.25;4957359;29;1375;-95
2022/04/19 01:42:06;;;;;;;;;;;;;;;8.29;62.91;101067.13;4943132;29;1970;-96
2022/04/19 01:44:34;;;;;;;;;;;;;;;8.28;62.60;101070.84;4938404;29;1202;-95
2022/04/19 01:47:01;;;;;;;;;;;;;;;8.27;62.80;101077.25;4951960;29;1273;-96
2022/04/19 01:49:27;;;;;;;;;;;;;;;8.27;62.71;101077.25;4955152;29;1189;-95
2022/04/19 01:51:54;;;;;;;;;;;;;;;8.24;62.69;101080.31;4956977;29;1200;-95
2022/04/19 01:54:20;;;;;;;;;;;;;;;8.23;62.34;101081.31;4937788;29;1187;-95
2022/04/19 01:56:48;;;;;;;;;;;;;;;8.22;62.45;101082.34;4945880;29;1162;-95
2022/04/19 01:59:15;;;;;;;;;;;;;;;8.19;62.41;101080.88;4956941;29;1165;-95
2022/04/19 02:01:42;;;;;;;;;;;;;;;8.18;62.40;101081.91;4956832;29;1911;-96
2022/04/19 02:04:08;;;;;;;;;;;;;;;8.16;62.67;101081.25;4957128;29;1218;-96
2022/04/19 02:06:35;;;;;;;;;;;;;;;8.14;62.45;101083.28;4956421;29;1329;-95
2022/04/19 02:09:03;;;;;;;;;;;;;;;8.13;62.64;101092.38;4956676;29;1182;-95
2022/04/19 02:11:29;;;;;;;;;;;;;;;8.10;62.45;101096.25;4950480;29;1229;-96
2022/04/19 02:13:56;;;;;;;;;;;;;;;8.08;62.34;101090.25;4956518;29;1193;-96
2022/04/19 02:16:22;;;;;;;;;;;;;;;8.06;62.50;101100.34;4949416;29;1313;-96
2022/04/19 02:18:49;;;;;;;;;;;;;;;8.04;62.54;101088.16;4956541;28;1393;-95
2022/04/19 02:21:16;;;;;;;;;;;;;;;8.02;62.46;101084.81;4956542;29;1910;-96
2022/04/19 02:23:42;;;;;;;;;;;;;;;8.00;62.31;101087.69;4957250;29;982;-95
2022/04/19 02:26:09;;;;;;;;;;;;;;;7.99;62.29;101077.13;4956273;29;1190;-95
2022/04/19 02:28:35;;;;;;;;;;;;;;;7.99;62.39;101091.38;4956586;29;1311;-95
2022/04/19 02:31:02;;;;;;;;;;;;;;;7.95;62.35;101082.88;4957377;29;1236;-95
2022/04/19 02:33:29;;;;;;;;;;;;;;;7.93;62.16;101092.13;4988459;28;1210;-95
2022/04/19 02:35:55;;;;;;;;;;;;;;;7.92;62.28;101098.53;4977691;28;1201;-95
2022/04/19 02:38:22;;;;;;;;;;;;;;;7.90;62.25;101089.84;4956671;29;1298;-96
2022/04/19 02:40:48;;;;;;;;;;;;;;;7.89;62.16;101094.38;4956351;29;1217;-96
2022/04/19 02:43:15;;;;;;;;;;;;;;;7.89;62.05;101096.22;4956162;29;1981;-95
2022/04/19 02:45:42;;;;;;;;;;;;;;;7.87;62.33;101098.25;4988372;28;1269;-95
2022/04/19 02:48:09;;;;;;;;;;;;;;;7.85;62.06;101090.41;4988371;28;1293;-95
2022/04/19 02:50:35;;;;;;;;;;;;;;;7.84;62.53;101098.63;4988710;28;1360;-96
2022/04/19 02:53:02;;;;;;;;;;;;;;;7.82;62.03;101096.13;4977173;28;1188;-95
2022/04/19 02:55:28;;;;;;;;;;;;;;;7.81;62.39;101097.16;4941907;28;1370;-95
2022/04/19 02:57:55;;;;;;;;;;;;;;;7.78;62.04;101086.81;4963813;28;1268;-95
2022/04/19 03:00:21;;;;;;;;;;;;;;;7.78;61.96;101092.19;4956085;29;1195;-95
2022/04/19 03:02:49;;;;;;;;;;;;;;;7.77;62.18;101092.38;4957102;29;1962;-95
2022/04/19 03:05:16;;;;;;;;;;;;;;;7.74;62.09;101089.03;4956009;28;1405;-95
2022/04/19 03:07:42;;;;;;;;;;;;;;;7.72;62.42;101088.41;4956271;29;1207;-95
2022/04/19 03:10:09;;;;;;;;;;;;;;;7.70;62.38;101085.06;4955839;29;1211;-96
2022/04/19 03:12:35;;;;;;;;;;;;;;;7.70;62.11;101085.06;4977565;28;1324;-95
2022/04/19 03:15:02;;;;;;;;;;;;;;;7.70;62.12;101090.41;4955705;29;1218;-96
2022/04/19 03:17:29;;;;;;;;;;;;;;;7.68;62.01;101091.66;4943455;29;2224;-95
2022/04/19 03:19:55;;;;;;;;;;;;;;;7.64;62.22;101087.66;4955488;28;4886;-96
2022/04/19 03:22:22;;;;;;;;;;;;;;;7.62;62.28;101081.69;4971948;28;1936;-95
2022/04/19 03:27:45;;;;;;;;;;;;;;;7.58;62.45;101081.19;4936704;29;1229;-96
2022/04/19 03:30:14;;;;;;;;;;;;;;;7.56;62.00;101085.09;4950258;28;1333;-95
2022/04/19 03:32:43;;;;;;;;;;;;;;;7.54;62.04;101085.28;4959861;29;1411;-95
2022/04/19 03:35:10;;;;;;;;;;;;;;;7.53;62.11;101090.81;4959475;29;1138;-96
2022/04/19 03:37:38;;;;;;;;;;;;;;;7.52;62.40;101095.34;4949189;28;1158;-96
2022/04/19 03:40:04;;;;;;;;;;;;;;;7.49;61.99;101093.88;4955860;29;1193;-95
2022/04/19 03:42:31;;;;;;;;;;;;;;;7.47;62.14;101101.28;4940005;29;1985;-95
2022/04/19 03:44:57;;;;;;;;;;;;;;;7.47;61.96;101097.75;4962653;28;1266;-96
2022/04/19 03:47:24;;;;;;;;;;;;;;;7.44;62.20;101096.31;5008059;28;1511;-95
2022/04/19 03:49:50;;;;;;;;;;;;;;;7.43;62.43;101105.34;4973033;28;2747;-95
2022/04/19 03:52:17;;;;;;;;;;;;;;;7.41;62.44;101104.72;4996021;28;857;-96
2022/04/19 03:54:44;;;;;;;;;;;;;;;7.40;62.46;101105.72;4977877;28;1165;-95
2022/04/19 03:57:11;;;;;;;;;;;;;;;7.39;62.19;101109.41;4981863;28;1298;-96
2022/04/19 03:59:38;;;;;;;;;;;;;;;7.39;62.35;101112.09;4981843;28;1346;-96
2022/04/19 04:02:04;;;;;;;;;;;;;;;7.37;62.29;101111.44;4981266;28;1906;-95
2022/04/19 04:04:32;;;;;;;;;;;;;;;7.35;62.26;101110.78;5011783;28;1177;-95
2022/04/19 04:06:59;;;;;;;;;;;;;;;7.33;62.19;101109.34;4981451;28;1321;-96
2022/04/19 04:09:25;;;;;;;;;;;;;;;7.32;62.30;101115.69;5014148;28;1221;-96
2022/04/19 04:11:52;;;;;;;;;;;;;;;7.32;62.25;101121.03;5002886;28;1272;-95
2022/04/19 04:14:18;;;;;;;;;;;;;;;7.31;62.22;101127.44;4967433;28;1191;-95
2022/04/19 04:16:44;;;;;;;;;;;;;;;7.30;61.68;101123.09;4977045;28;1277;-95
2022/04/19 04:19:11;;;;;;;;;;;;;;;7.29;61.82;101122.25;5004262;28;2267;-96
2022/04/19 04:21:37;;;;;;;;;;;;;;;7.27;61.82;101129.66;4991635;28;2236;-95
2022/04/19 04:24:04;;;;;;;;;;;;;;;7.26;62.07;101138.69;5008228;28;1379;-95
2022/04/19 04:26:30;;;;;;;;;;;;;;;7.24;62.15;101140.75;4969592;28;2217;-95
2022/04/19 04:28:57;;;;;;;;;;;;;;;7.21;62.04;101139.25;4978047;28;1644;-95
2022/04/19 04:31:23;;;;;;;;;;;;;;;7.20;61.80;101144.78;5002618;28;1270;-95
2022/04/19 04:33:50;;;;;;;;;;;;;;;7.19;62.04;101138.59;4981187;28;1207;-95
2022/04/19 04:36:17;;;;;;;;;;;;;;;7.17;62.08;101143.28;4966955;28;1206;-95
2022/04/19 04:38:43;;;;;;;;;;;;;;;7.17;62.04;101139.78;4968255;28;2315;-95
2022/04/19 04:41:10;;;;;;;;;;;;;;;7.15;62.07;101141.84;4980878;28;1271;-95
2022/04/19 04:43:37;;;;;;;;;;;;;;;7.14;61.54;101142.84;5013009;28;1969;-95
2022/04/19 04:51:32;;;;;;;;;;;;;;;7.10;61.92;101144.22;4945133;29;1290;-96
2022/04/19 04:53:59;;;;;;;;;;;;;;;7.10;61.86;101146.91;4959412;29;938;-95
2022/04/19 04:56:25;;;;;;;;;;;;;;;7.08;61.88;101147.06;4957735;29;1209;-95
2022/04/19 04:58:52;;;;;;;;;;;;;;;7.08;61.75;101148.94;4957693;29;1195;-94
2022/04/19 05:01:19;;;;;;;;;;;;;;;7.06;61.82;101154.47;4947020;29;1225;-95
2022/04/19 05:03:45;;;;;;;;;;;;;;;7.03;61.64;101147.63;4958885;29;1891;-95
2022/04/19 05:06:12;;;;;;;;;;;;;;;7.04;61.59;101153.81;4976824;28;1305;-94
2022/04/19 05:08:38;;;;;;;;;;;;;;;7.02;61.73;101150.50;4957648;29;1188;-95
2022/04/19 05:11:05;;;;;;;;;;;;;;;7.01;61.84;101146.16;4949330;29;1300;-95
2022/04/19 05:13:31;;;;;;;;;;;;;;;7.00;61.63;101141.78;4951443;29;1199;-95
2022/04/19 05:15:58;;;;;;;;;;;;;;;6.99;61.28;101148.16;4957604;29;1326;-94
2022/04/19 05:18:25;;;;;;;;;;;;;;;6.97;61.49;101140.34;4989978;28;1352;-95
2022/04/19 05:20:52;;;;;;;;;;;;;;;6.96;61.64;101141.31;4989887;28;1221;-95
2022/04/19 05:23:19;;;;;;;;;;;;;;;6.96;61.48;101148.53;4989796;28;1914;-95
2022/04/19 05:25:45;;;;;;;;;;;;;;;6.96;61.46;101145.84;4970761;28;1321;-94
2022/04/19 05:28:12;;;;;;;;;;;;;;;6.96;61.67;101143.19;4938342;29;1174;-94
2022/04/19 05:30:38;;;;;;;;;;;;;;;6.93;61.55;101146.22;4951038;28;1531;-93
2022/04/19 05:33:05;;;;;;;;;;;;;;;6.93;61.59;101155.09;4953517;29;1138;-94
2022/04/19 05:35:31;;;;;;;;;;;;;;;6.91;61.23;101158.94;4989972;28;1350;-95
2022/04/19 05:37:59;;;;;;;;;;;;;;;6.90;61.40;101160.81;4976235;28;1568;-95
2022/04/19 05:40:25;;;;;;;;;;;;;;;6.89;61.11;101167.19;4978900;28;1361;-95
2022/04/19 05:42:52;;;;;;;;;;;;;;;6.90;61.11;101166.16;4955178;29;1970;-95
2022/04/19 05:45:19;;;;;;;;;;;;;;;6.88;61.48;101172.69;4948997;28;1619;-94
2022/04/19 05:47:45;;;;;;;;;;;;;;;6.85;61.48;101168.53;4976281;28;1209;-94
2022/04/19 05:50:12;;;;;;;;;;;;;;;6.86;61.24;101180.09;4961012;28;4883;-94
2022/04/19 05:52:38;;;;;;;;;;;;;;;6.86;61.37;101174.75;4971078;28;1619;-93
2022/04/19 05:55:05;;;;;;;;;;;;;;;6.85;61.19;101173.06;4975867;28;1667;-94
2022/04/19 05:57:32;;;;;;;;;;;;;;;6.83;61.02;101178.63;4975950;28;1192;-93
2022/04/19 05:59:58;;;;;;;;;;;;;;;6.82;61.30;101183.13;4976199;28;1333;-94
2022/04/19 06:05:10;;;;;;;;;;;;;;;6.80;61.35;101185.16;4975212;28;1200;-95
2022/04/19 06:07:36;;;;;;;;;;;;;;;6.80;60.92;101189.69;4970387;28;1802;-94
2022/04/19 06:10:03;;;;;;;;;;;;;;;6.79;61.01;101185.31;4975839;28;1186;-94
2022/04/19 06:12:29;;;;;;;;;;;;;;;6.76;61.02;101180.31;4966408;28;1336;-94
2022/04/19 06:14:56;;;;;;;;;;;;;;;6.77;60.83;101184.69;4975740;28;1882;-94
2022/04/19 06:17:22;;;;;;;;;;;;;;;6.76;60.93;101189.19;4975698;28;1439;-93
2022/04/19 06:19:49;;;;;;;;;;;;;;;6.75;60.88;101181.34;4972466;28;2614;-93
2022/04/19 06:22:15;;;;;;;;;;;;;;;6.74;60.89;101182.38;4962140;28;2223;-92
2022/04/19 06:24:42;;;;;;;;;;;;;;;6.73;61.13;101183.38;4989287;28;1651;-94
2022/04/19 06:27:09;;;;;;;;;;;;;;;6.71;61.23;101183.56;4976939;28;1032;-94
2022/04/19 06:29:35;;;;;;;;;;;;;;;6.71;61.03;101182.72;4972645;28;1193;-91
2022/04/19 06:32:02;;;;;;;;;;;;;;;6.70;61.19;101178.38;4971834;28;2824;-93
2022/04/19 06:34:28;;;;;;;;;;;;;;;6.68;61.16;101178.56;4975184;28;1217;-94
2022/04/19 06:36:55;;;;;;;;;;;;;;;6.68;60.99;101191.94;4968726;28;4800;-93
2022/04/19 06:39:21;;;;;;;;;;;;;;;6.68;60.86;101191.13;4959986;28;3933;-93
2022/04/19 06:41:48;;;;;;;;;;;;;;;6.67;60.80;101189.44;4976581;28;1138;-93
2022/04/19 06:44:16;;;;;;;;;;;;;;;6.67;60.96;101197.47;4964339;28;1922;-94
2022/04/19 06:46:44;;;;;;;;;;;;;;;6.67;60.99;101194.78;4954806;29;1865;-94
2022/04/19 06:49:11;;;;;;;;;;;;;;;6.65;60.77;101192.31;4949659;29;1763;-94
2022/04/19 06:51:39;;;;;;;;;;;;;;;6.66;60.70;101185.09;4937121;29;1269;-94
2022/04/19 06:54:06;;;;;;;;;;;;;;;6.66;60.87;101191.28;4938834;29;1218;-94
2022/04/19 06:56:33;;;;;;;;;;;;;;;6.64;60.86;101195.97;4955955;29;1190;-94
2022/04/19 06:59:00;;;;;;;;;;;;;;;6.66;60.88;101190.47;4988271;28;1165;-93
2022/04/19 07:01:26;;;;;;;;;;;;;;;6.64;60.61;101193.28;4989186;28;1212;-94
2022/04/19 07:03:53;;;;;;;;;;;;;;;6.63;60.78;101188.13;4988201;28;1910;-94
2022/04/19 07:06:19;;;;;;;;;;;;;;;6.62;60.63;101183.78;4990751;28;1360;-93
2022/04/19 07:08:46;;;;;;;;;;;;;;;6.62;60.78;101194.47;4960823;29;937;-94
2022/04/19 07:11:15;;;;;;;;;;;;;;;6.62;60.86;101195.34;4993153;28;1181;-93
2022/04/19 07:13:42;;;;;;;;;;;;;;;6.61;60.71;101196.34;4960231;29;1190;-94
2022/04/19 07:16:09;;;;;;;;;;;;;;;6.60;60.57;101197.34;4959595;29;2077;-95
2022/04/19 07:18:36;;;;;;;;;;;;;;;6.60;60.77;101206.22;4960212;29;1170;-94
2022/04/19 07:26:40;;;;;;;;;;;;;;;6.59;60.71;101196.53;4979241;28;1286;-94
2022/04/19 07:29:07;;;;;;;;;;;;;;;6.58;60.70;101213.56;4969869;28;965;-95
2022/04/19 07:31:34;;;;;;;;;;;;;;;6.58;60.60;101202.88;4956207;28;1204;-95
2022/04/19 07:34:00;;;;;;;;;;;;;;;6.59;60.75;101204.56;4959484;29;1291;-94
2022/04/19 07:36:27;;;;;;;;;;;;;;;6.59;60.63;101203.72;4959435;29;1470;-94
2022/04/19 07:38:54;;;;;;;;;;;;;;;6.59;60.70;101201.06;4960388;29;1020;-94
2022/04/19 07:41:20;;;;;;;;;;;;;;;6.60;60.47;101197.34;4959199;29;1235;-94
2022/04/19 07:43:47;;;;;;;;;;;;;;;6.59;60.56;101201.88;4959295;29;1914;-94
2022/04/19 07:46:15;;;;;;;;;;;;;;;6.58;60.46;101204.72;4972059;28;1268;-94
2022/04/19 07:48:41;;;;;;;;;;;;;;;6.59;60.63;101209.09;4978646;28;1186;-95
2022/04/19 07:51:08;;;;;;;;;;;;;;;6.59;60.59;101215.25;4979393;28;1279;-94
2022/04/19 07:53:35;;;;;;;;;;;;;;;6.59;60.59;101204.56;4979769;28;1248;-94
2022/04/19 07:56:02;;;;;;;;;;;;;;;6.59;60.76;101215.25;4978296;28;1341;-94
2022/04/19 07:58:28;;;;;;;;;;;;;;;6.59;60.56;101209.91;5011457;28;1421;-94
2022/04/19 08:00:55;;;;;;;;;;;;;;;6.59;60.46;101212.59;4996147;28;1201;-94
2022/04/19 08:03:22;;;;;;;;;;;;;;;6.62;60.69;101223.94;4985823;28;1910;-94
2022/04/19 08:05:48;;;;;;;;;;;;;;;6.62;60.83;101226.59;4978686;28;1379;-94
2022/04/19 08:08:16;;;;;;;;;;;;;;;6.60;60.40;101224.94;4978367;28;1157;-94
2022/04/19 08:10:43;;;;;;;;;;;;;;;6.61;60.77;101220.41;4979306;28;1008;-95
2022/04/19 08:13:09;;;;;;;;;;;;;;;6.61;60.57;101225.78;4995458;28;1184;-94
2022/04/19 08:15:36;;;;;;;;;;;;;;;6.60;60.46;101219.59;4988558;28;1292;-94
2022/04/19 08:18:02;;;;;;;;;;;;;;;6.62;60.39;101223.94;4977656;28;1208;-95
2022/04/19 08:20:29;;;;;;;;;;;;;;;6.63;60.42;101220.25;4977920;28;1180;-94
2022/04/19 08:22:55;;;;;;;;;;;;;;;6.63;60.36;101229.13;4978104;28;1907;-94
2022/04/19 08:25:22;;;;;;;;;;;;;;;6.63;60.46;101228.28;5010527;28;1284;-95
2022/04/19 08:27:48;;;;;;;;;;;;;;;6.63;60.73;101229.13;4977859;28;1356;-94
2022/04/19 08:30:15;;;;;;;;;;;;;;;6.64;60.47;101229.94;4978205;28;1210;-94
2022/04/19 08:32:42;;;;;;;;;;;;;;;6.65;60.43;101229.78;4960513;28;1363;-95
2022/04/19 08:35:09;;;;;;;;;;;;;;;6.65;60.42;101232.47;4976212;28;1339;-94
2022/04/19 08:37:36;;;;;;;;;;;;;;;6.67;60.60;101225.06;4983036;28;1246;-94
2022/04/19 08:40:02;;;;;;;;;;;;;;;6.67;60.30;101221.56;4971445;28;4495;-94
2022/04/19 08:42:29;;;;;;;;;;;;;;;6.68;60.57;101223.25;4976743;28;1843;-95
2022/04/19 08:44:56;;;;;;;;;;;;;;;6.67;60.76;101227.75;4980112;28;2147;-95
2022/04/19 08:47:23;;;;;;;;;;;;;;;6.68;60.67;101213.38;4980710;28;1347;-95
2022/04/19 08:49:49;;;;;;;;;;;;;;;6.70;60.31;101221.19;5014043;28;1316;-95
2022/04/19 08:52:16;;;;;;;;;;;;;;;6.71;60.45;101217.53;5013311;28;1394;-95
2022/04/19 08:57:30;;;;;;;;;;;;;;;6.71;60.56;101218.34;4961250;28;1178;-94
2022/04/19 08:59:56;;;;;;;;;;;;;;;6.73;60.34;101215.50;5011383;28;1307;-95
2022/04/19 09:02:23;;;;;;;;;;;;;;;6.74;60.41;101223.34;4980568;28;1263;-94
2022/04/19 09:04:50;;;;;;;;;;;;;;;6.73;60.44;101213.63;4980965;28;1914;-95
2022/04/19 09:07:17;;;;;;;;;;;;;;;6.73;60.44;101229.69;5011852;28;1295;-95
2022/04/19 09:09:43;;;;;;;;;;;;;;;6.75;60.41;101224.19;4978879;28;1628;-94
2022/04/19 09:12:10;;;;;;;;;;;;;;;6.77;60.56;101225.69;4982734;28;1293;-95
2022/04/19 09:14:37;;;;;;;;;;;;;;;6.79;60.49;101225.47;4977264;28;1177;-95
2022/04/19 09:17:03;;;;;;;;;;;;;;;6.79;60.86;101222.81;5011303;28;1337;-95
2022/04/19 09:19:30;;;;;;;;;;;;;;;6.77;60.72;101225.69;4995330;28;1209;-94
2022/04/19 09:21:56;;;;;;;;;;;;;;;6.80;60.52;101222.66;4976773;28;1216;-94
2022/04/19 09:24:23;;;;;;;;;;;;;;;6.81;60.60;101223.47;4976864;28;1922;-94
2022/04/19 09:26:49;;;;;;;;;;;;;;;6.83;60.93;101221.47;4961890;28;2234;-95
2022/04/19 09:29:17;;;;;;;;;;;;;;;6.83;60.68;101211.56;4978224;28;2099;-95
2022/04/19 09:31:43;;;;;;;;;;;;;;;6.85;60.83;101210.56;4976805;28;1295;-95
2022/04/19 09:34:11;;;;;;;;;;;;;;;6.87;60.60;101216.56;4976927;28;1349;-95
2022/04/19 09:36:37;;;;;;;;;;;;;;;6.88;60.54;101208.34;4993308;28;1028;-94
2022/04/19 09:39:04;;;;;;;;;;;;;;;6.87;60.95;101217.41;4979769;28;1199;-95
2022/04/19 09:41:30;;;;;;;;;;;;;;;6.89;60.89;101215.38;4961047;28;1194;-94
2022/04/19 09:43:57;;;;;;;;;;;;;;;6.91;61.03;101220.53;4978414;28;1989;-95
2022/04/19 09:46:23;;;;;;;;;;;;;;;6.91;60.74;101223.22;4961941;28;1305;-95
2022/04/19 09:48:50;;;;;;;;;;;;;;;6.93;60.84;101221.22;4957243;29;1198;-95
2022/04/19 09:51:16;;;;;;;;;;;;;;;6.94;60.88;101222.84;4957326;29;1321;-95
2022/04/19 09:53:43;;;;;;;;;;;;;;;6.95;60.89;101227.22;4957285;29;1169;-95
2022/04/19 09:56:09;;;;;;;;;;;;;;;6.97;60.73;101218.00;4956983;29;1403;-95
2022/04/19 09:58:36;;;;;;;;;;;;;;;6.97;60.80;101220.69;4957306;29;1407;-95
2022/04/19 10:01:02;;;;;;;;;;;;;;;6.99;60.79;101217.81;4956747;29;1179;-96
2022/04/19 10:08:57;;;;;;;;;;;;;;;7.01;60.83;101215.78;4956456;29;1285;-95
2022/04/19 10:11:24;;;;;;;;;;;;;;;7.02;60.96;101217.44;4957027;29;1344;-96
2022/04/19 10:13:51;;;;;;;;;;;;;;;7.03;61.13;101219.97;4956726;29;1285;-95
2022/04/19 10:16:17;;;;;;;;;;;;;;;7.04;60.84;101210.91;4956402;29;1199;-96
2022/04/19 10:18:45;;;;;;;;;;;;;;;7.08;61.19;101215.91;4956544;29;1274;-95
2022/04/19 10:21:11;;;;;;;;;;;;;;;7.08;61.27;101211.38;4956536;29;1202;-95
2022/04/19 10:23:38;;;;;;;;;;;;;;;7.09;61.29;101214.88;4949849;29;1895;-95
2022/04/19 10:26:05;;;;;;;;;;;;;;;7.10;61.36;101208.53;4988735;28;1192;-94
2022/04/19 10:28:31;;;;;;;;;;;;;;;7.11;61.21;101211.00;4988595;28;1192;-96
2022/04/19 10:30:58;;;;;;;;;;;;;;;7.13;61.42;101208.16;4988639;28;1197;-96
2022/04/19 10:33:26;;;;;;;;;;;;;;;7.15;61.28;101203.47;4981327;28;1162;-95
2022/04/19 10:35:53;;;;;;;;;;;;;;;7.16;61.38;101213.16;4956023;29;1305;-95
2022/04/19 10:38:19;;;;;;;;;;;;;;;7.18;61.03;101205.78;4948714;29;1304;-95
2022/04/19 10:40:46;;;;;;;;;;;;;;;7.18;61.48;101206.59;4956240;28;1210;-96
2022/04/19 10:43:13;;;;;;;;;;;;;;;7.19;61.65;101202.06;4952007;29;1922;-95
2022/04/19 10:45:39;;;;;;;;;;;;;;;7.21;61.59;101202.72;4949040;29;1402;-96
2022/04/19 10:48:07;;;;;;;;;;;;;;;7.21;61.36;101200.88;4956397;29;1322;-96
2022/04/19 10:50:34;;;;;;;;;;;;;;;7.23;61.71;101206.03;4956267;29;1518;-96
2022/04/19 10:53:02;;;;;;;;;;;;;;;7.23;61.44;101204.19;4965160;28;1337;-96
2022/04/19 10:55:28;;;;;;;;;;;;;;;7.25;61.61;101195.97;4965540;28;1202;-96
2022/04/19 10:58:09;;;;;;;;;;;;;;;7.25;61.63;101202.16;5007770;28;1310;-96
2022/04/19 11:00:35;;;;;;;;;;;;;;;7.27;61.33;101204.69;5007749;28;1217;-96
2022/04/19 11:03:02;;;;;;;;;;;;;;;7.30;61.86;101204.31;4956492;29;1177;-96
2022/04/19 11:05:29;;;;;;;;;;;;;;;7.31;61.81;101200.59;4955932;28;1979;-96
2022/04/19 11:07:56;;;;;;;;;;;;;;;7.33;61.83;101203.94;4956077;29;1314;-96
2022/04/19 11:10:22;;;;;;;;;;;;;;;7.33;61.97;101203.94;4960546;28;4890;-96
2022/04/19 11:12:49;;;;;;;;;;;;;;;7.35;61.91;101201.91;4975104;28;1182;-96
2022/04/19 11:15:16;;;;;;;;;;;;;;;7.37;62.02;101205.25;4975241;28;1212;-96
2022/04/19 11:17:42;;;;;;;;;;;;;;;7.38;61.93;101200.69;4970570;28;2299;-96
2022/04/19 11:20:09;;;;;;;;;;;;;;;7.41;61.83;101198.50;4971246;28;2216;-96
2022/04/19 11:22:35;;;;;;;;;;;;;;;7.42;62.07;101210.06;4959089;28;2633;-96
2022/04/19 11:25:02;;;;;;;;;;;;;;;7.45;62.11;101210.53;4973422;28;1977;-96
2022/04/19 11:27:29;;;;;;;;;;;;;;;7.45;62.18;101207.84;4990774;28;2382;-96
2022/04/19 11:29:55;;;;;;;;;;;;;;;7.48;62.22;101215.50;4967629;28;2004;-96
2022/04/19 11:32:22;;;;;;;;;;;;;;;7.50;62.16;101213.50;4988904;28;1448;-96
2022/04/19 11:34:48;;;;;;;;;;;;;;;7.52;62.34;101213.28;4986102;28;1227;-96
2022/04/19 11:37:15;;;;;;;;;;;;;;;7.53;61.95;101209.63;4957427;28;1193;-96
2022/04/19 11:47:54;;;;;;;;;;;;;;;7.62;62.38;101202.31;4959165;28;1281;-96
2022/04/19 11:50:21;;;;;;;;;;;;;;;7.64;62.21;101202.94;4959121;28;1218;-96
2022/04/19 11:52:48;;;;;;;;;;;;;;;7.66;62.35;101200.94;4962047;28;1283;-96
2022/04/19 11:55:14;;;;;;;;;;;;;;;7.66;62.57;101199.06;4962564;28;1202;-96
2022/04/19 11:57:41;;;;;;;;;;;;;;;7.70;62.37;101199.53;4962083;28;2075;-96
2022/04/19 12:00:08;;;;;;;;;;;;;;;7.70;62.55;101191.47;4978690;28;1241;-96
2022/04/19 12:02:34;;;;;;;;;;;;;;;7.73;62.65;101200.00;4978954;28;1276;-96
2022/04/19 12:05:03;;;;;;;;;;;;;;;7.76;62.53;101208.69;4974719;28;1969;-96
2022/04/19 12:07:29;;;;;;;;;;;;;;;7.77;62.49;101208.50;4943309;29;1198;-96
2022/04/19 12:09:56;;;;;;;;;;;;;;;7.79;62.59;101208.31;4977579;28;1284;-96
2022/04/19 12:12:22;;;;;;;;;;;;;;;7.80;62.82;101201.94;4961383;28;1315;-96
2022/04/19 12:14:49;;;;;;;;;;;;;;;7.84;62.85;101197.88;4990570;28;1342;-96
2022/04/19 12:17:15;;;;;;;;;;;;;;;7.89;62.86;101207.03;4977712;28;1288;-96
2022/04/19 12:19:42;;;;;;;;;;;;;;;7.89;62.64;101209.72;4961047;28;4842;-96
2022/04/19 12:22:08;;;;;;;;;;;;;;;7.90;62.88;101200.63;4978013;28;1409;-96
2022/04/19 12:24:35;;;;;;;;;;;;;;;7.90;63.00;101192.59;4977874;28;1914;-96
2022/04/19 12:27:01;;;;;;;;;;;;;;;7.91;62.81;101196.09;4961893;28;1374;-96
2022/04/19 12:29:28;;;;;;;;;;;;;;;7.96;62.72;101191.00;4962354;28;1202;-96
2022/04/19 12:31:54;;;;;;;;;;;;;;;8.01;62.85;101193.16;4958999;29;2205;-96
2022/04/19 12:34:21;;;;;;;;;;;;;;;8.02;62.96;101192.94;4957452;28;2212;-96
2022/04/19 12:36:48;;;;;;;;;;;;;;;8.04;62.83;101190.09;4961791;28;2180;-96
2022/04/19 12:39:15;;;;;;;;;;;;;;;8.06;63.14;101186.19;4977901;28;1127;-96
2022/04/19 12:41:43;;;;;;;;;;;;;;;8.08;63.22;101192.19;4977489;28;1342;-96
2022/04/19 12:44:09;;;;;;;;;;;;;;;8.11;62.99;101193.66;4958649;29;1960;-96
2022/04/19 12:46:36;;;;;;;;;;;;;;;8.13;62.91;101188.97;4972177;28;1321;-96
2022/04/19 12:49:03;;;;;;;;;;;;;;;8.17;63.20;101192.91;5010216;28;1299;-96
2022/04/19 12:51:30;;;;;;;;;;;;;;;8.18;63.33;101192.75;4981124;28;1162;-96
2022/04/19 12:53:56;;;;;;;;;;;;;;;8.21;63.31;101191.53;4981314;28;1190;-96
2022/04/19 12:56:23;;;;;;;;;;;;;;;8.23;63.07;101183.28;4980737;28;1385;-96
2022/04/19 12:58:50;;;;;;;;;;;;;;;8.25;63.20;101183.94;4981085;28;1393;-96
2022/04/19 13:01:16;;;;;;;;;;;;;;;8.27;63.21;101190.78;5002474;28;1261;-96
2022/04/19 13:03:43;;;;;;;;;;;;;;;8.30;63.29;101176.97;4996015;28;1919;-96
2022/04/19 13:14:22;;;;;;;;;;;;;;;8.46;63.58;101183.16;4981380;28;1233;-96
2022/04/19 13:16:48;;;;;;;;;;;;;;;8.49;63.78;101180.91;4962487;28;1422;-96
2022/04/19 13:19:15;;;;;;;;;;;;;;;8.51;63.68;101178.88;4979080;28;1334;-96
2022/04/19 13:21:41;;;;;;;;;;;;;;;8.53;63.75;101176.00;4980581;28;1274;-96
2022/04/19 13:24:08;;;;;;;;;;;;;;;8.55;63.50;101177.47;4980859;28;1981;-96
2022/04/19 13:26:35;;;;;;;;;;;;;;;8.57;63.68;101166.56;4980639;28;1427;-96
2022/04/19 13:29:01;;;;;;;;;;;;;;;8.58;63.78;101177.09;4981098;28;1258;-96
2022/04/19 13:31:28;;;;;;;;;;;;;;;8.61;63.73;101176.69;4980954;28;1194;-96
2022/04/19 13:33:54;;;;;;;;;;;;;;;8.63;63.90;101176.53;5013627;28;1533;-96
2022/04/19 13:36:21;;;;;;;;;;;;;;;8.67;63.70;101179.66;5013244;28;1292;-96
2022/04/19 13:38:48;;;;;;;;;;;;;;;8.69;63.62;101181.13;5007482;28;4550;-96